Morro Bay, CA (93442)

2:53 AM PDT on August 27, 2016 (GMT -0700)
Morro Bay Avalon Street | | Change Station

Elev 331 ft 35.39 °N, 120.85 °W | Updated 13 minutes ago

Overcast
Overcast
60.8 °F
Feels Like 60.8 °F
N
3.0
Wind Variable Wind from WNW
Gusts 4.0 mph

Today
High -- | Low -- °F
--% Chance of Precip.
Yesterday
High -- | Low -- °F
Precip. -- in
Pressure 29.97 in
Visibility 10.0 miles
Clouds Overcast 1500 ft
Dew Point 57 °F
Humidity 86%
Rainfall 0.00 in
Snow Depth Not available.
6:32 AM 7:36 PM
Waning Crescent, 26% visible
METAR KSBP 270856Z 30007KT 10SM OVC015 17/12 A2997 RMK AO2 SLP147 T01720122 57004
Pressure 29.97 in
Visibility 10.0 miles
Clouds Overcast 1500 ft
Dew Point 57 °F
Humidity 86%
Rainfall 0.00 in
Snow Depth Not available.
6:32 AM 7:36 PM
Waning Crescent, 26% visible
METAR KSBP 270856Z 30007KT 10SM OVC015 17/12 A2997 RMK AO2 SLP147 T01720122 57004

10-Day Weather Forecast

Almanac

Astronomy

Aug. 27, 2016 Rise Set
Actual Time
Civil Twilight
Nautical Twilight
Astronomical Twilight
Moon
Length of Visible Light
Length of Day
Tomorrow will be .
, % of the Moon is Illuminated

Today's Extremes

State Highs State Lows

Community

WunderPhotos

Upload Photos

1,935,313 photos uploaded!

WunderBlog® & News

Nearby

Air Quality

  Air Quality AQ Index Pollutant
Not available.

Snow Depth

Station Depth Elevation

Earthquake Activity

City Distance Mag. Time & Date
Minimum magnitude displayed is 2.5.

Coastal Water Temperatures

Place Temperature

Stations

Nearby Weather Stations

Station Location Temp. Windchill Dew Point Humidity Wind Precip. Elev Updated Type
                   

Watches & Warnings

There are currently no watches in effect.